sensor_id;sensor_type;location;lat;lon;timestamp;pressure;altitude;pressure_sealevel;temperature;humidity
74524;BME280;63074;44.696;10.358;2023-04-03T00:00:31;99666.25;;;9.16;100.00
74524;BME280;63074;44.696;10.358;2023-04-03T00:02:58;99658.09;;;8.99;100.00
74524;BME280;63074;44.696;10.358;2023-04-03T00:05:24;99657.38;;;9.27;100.00
74524;BME280;63074;44.696;10.358;2023-04-03T00:07:51;99661.31;;;9.48;100.00
74524;BME280;63074;44.696;10.358;2023-04-03T00:10:17;99656.66;;;9.43;100.00
74524;BME280;63074;44.696;10.358;2023-04-03T00:12:43;99664.94;;;9.42;100.00
74524;BME280;63074;44.696;10.358;2023-04-03T00:15:10;99663.00;;;9.14;100.00
74524;BME280;63074;44.696;10.358;2023-04-03T00:17:36;99661.44;;;9.30;100.00
74524;BME280;63074;44.696;10.358;2023-04-03T00:20:03;99661.66;;;9.40;100.00
74524;BME280;63074;44.696;10.358;2023-04-03T00:22:29;99665.16;;;9.52;100.00
74524;BME280;63074;44.696;10.358;2023-04-03T00:24:56;99660.25;;;9.49;100.00
74524;BME280;63074;44.696;10.358;2023-04-03T00:27:22;99657.47;;;9.32;100.00
74524;BME280;63074;44.696;10.358;2023-04-03T00:29:48;99665.16;;;9.40;100.00
74524;BME280;63074;44.696;10.358;2023-04-03T00:32:15;99660.97;;;9.33;100.00
74524;BME280;63074;44.696;10.358;2023-04-03T00:34:41;99661.19;;;9.43;100.00
74524;BME280;63074;44.696;10.358;2023-04-03T00:37:07;99658.91;;;9.63;100.00
74524;BME280;63074;44.696;10.358;2023-04-03T00:39:33;99657.41;;;9.56;100.00
74524;BME280;63074;44.696;10.358;2023-04-03T00:42:00;99654.44;;;9.29;100.00
74524;BME280;63074;44.696;10.358;2023-04-03T00:47:02;99660.31;;;9.02;100.00
74524;BME280;63074;44.696;10.358;2023-04-03T00:49:29;99658.56;;;8.96;100.00
74524;BME280;63074;44.696;10.358;2023-04-03T00:51:57;99657.28;;;8.99;100.00
74524;BME280;63074;44.696;10.358;2023-04-03T00:54:25;99653.91;;;9.15;100.00
74524;BME280;63074;44.696;10.358;2023-04-03T00:56:56;99650.88;;;9.11;100.00
74524;BME280;63074;44.696;10.358;2023-04-03T00:59:32;99648.78;;;9.02;100.00
74524;BME280;63074;44.696;10.358;2023-04-03T01:02:00;99642.88;;;8.53;100.00
74524;BME280;63074;44.696;10.358;2023-04-03T01:04:33;99646.25;;;8.84;100.00
74524;BME280;63074;44.696;10.358;2023-04-03T01:07:04;99658.34;;;9.21;100.00
74524;BME280;63074;44.696;10.358;2023-04-03T01:09:32;99652.22;;;9.37;100.00
74524;BME280;63074;44.696;10.358;2023-04-03T01:14:49;99652.47;;;9.36;100.00
74524;BME280;63074;44.696;10.358;2023-04-03T01:17:35;99649.31;;;9.39;100.00
74524;BME280;63074;44.696;10.358;2023-04-03T01:25:13;99641.44;;;9.21;100.00
74524;BME280;63074;44.696;10.358;2023-04-03T01:27:39;99644.19;;;9.26;100.00
74524;BME280;63074;44.696;10.358;2023-04-03T01:30:06;99639.56;;;9.21;100.00
74524;BME280;63074;44.696;10.358;2023-04-03T01:32:32;99639.75;;;9.31;100.00
74524;BME280;63074;44.696;10.358;2023-04-03T01:34:59;99636.84;;;9.33;100.00
74524;BME280;63074;44.696;10.358;2023-04-03T01:37:25;99637.66;;;9.33;100.00
74524;BME280;63074;44.696;10.358;2023-04-03T01:39:51;99635.91;;;9.27;100.00
74524;BME280;63074;44.696;10.358;2023-04-03T01:42:18;99634.97;;;9.45;100.00
74524;BME280;63074;44.696;10.358;2023-04-03T01:44:44;99641.00;;;9.52;100.00
74524;BME280;63074;44.696;10.358;2023-04-03T01:47:11;99632.09;;;9.63;100.00
74524;BME280;63074;44.696;10.358;2023-04-03T01:49:37;99623.56;;;9.66;100.00
74524;BME280;63074;44.696;10.358;2023-04-03T01:52:03;99620.91;;;9.55;100.00
74524;BME280;63074;44.696;10.358;2023-04-03T01:54:29;99632.19;;;9.68;100.00
74524;BME280;63074;44.696;10.358;2023-04-03T01:56:55;99625.81;;;9.58;100.00
74524;BME280;63074;44.696;10.358;2023-04-03T01:59:22;99629.88;;;9.60;100.00
74524;BME280;63074;44.696;10.358;2023-04-03T02:01:48;99630.28;;;9.52;100.00
74524;BME280;63074;44.696;10.358;2023-04-03T02:04:14;99633.00;;;9.29;100.00
74524;BME280;63074;44.696;10.358;2023-04-03T02:06:40;99628.19;;;9.42;100.00
74524;BME280;63074;44.696;10.358;2023-04-03T02:09:07;99630.44;;;9.34;100.00
74524;BME280;63074;44.696;10.358;2023-04-03T02:11:33;99627.63;;;9.29;100.00
74524;BME280;63074;44.696;10.358;2023-04-03T02:14:00;99625.50;;;9.42;100.00
74524;BME280;63074;44.696;10.358;2023-04-03T02:16:26;99629.59;;;9.45;100.00
74524;BME280;63074;44.696;10.358;2023-04-03T02:18:52;99622.22;;;9.52;100.00
74524;BME280;63074;44.696;10.358;2023-04-03T02:21:19;99623.66;;;9.31;100.00
74524;BME280;63074;44.696;10.358;2023-04-03T02:23:45;99614.69;;;9.37;100.00
74524;BME280;63074;44.696;10.358;2023-04-03T02:26:13;99620.97;;;9.43;100.00
74524;BME280;63074;44.696;10.358;2023-04-03T02:28:40;99616.06;;;9.40;100.00
74524;BME280;63074;44.696;10.358;2023-04-03T02:31:08;99613.38;;;9.52;100.00
74524;BME280;63074;44.696;10.358;2023-04-03T02:33:35;99619.63;;;9.57;100.00
74524;BME280;63074;44.696;10.358;2023-04-03T02:36:06;99614.72;;;9.54;100.00
74524;BME280;63074;44.696;10.358;2023-04-03T02:38:33;99618.28;;;9.43;100.00
74524;BME280;63074;44.696;10.358;2023-04-03T02:41:08;99618.63;;;9.46;100.00
74524;BME280;63074;44.696;10.358;2023-04-03T02:43:34;99619.44;;;9.47;100.00
74524;BME280;63074;44.696;10.358;2023-04-03T02:46:00;99620.88;;;9.38;100.00
74524;BME280;63074;44.696;10.358;2023-04-03T02:48:27;99618.88;;;9.33;100.00
74524;BME280;63074;44.696;10.358;2023-04-03T02:50:53;99611.53;;;9.40;100.00
74524;BME280;63074;44.696;10.358;2023-04-03T02:53:20;99617.13;;;9.39;100.00
74524;BME280;63074;44.696;10.358;2023-04-03T02:55:47;99616.56;;;9.25;100.00
74524;BME280;63074;44.696;10.358;2023-04-03T02:58:13;99614.38;;;9.22;100.00
74524;BME280;63074;44.696;10.358;2023-04-03T03:00:39;99612.53;;;9.23;100.00
74524;BME280;63074;44.696;10.358;2023-04-03T03:03:06;99613.00;;;9.20;100.00
74524;BME280;63074;44.696;10.358;2023-04-03T03:05:32;99609.91;;;9.28;100.00
74524;BME280;63074;44.696;10.358;2023-04-03T03:07:58;99610.91;;;8.98;100.00
74524;BME280;63074;44.696;10.358;2023-04-03T03:10:24;99607.19;;;8.99;100.00
74524;BME280;63074;44.696;10.358;2023-04-03T03:12:51;99612.06;;;9.02;100.00
74524;BME280;63074;44.696;10.358;2023-04-03T03:15:17;99608.69;;;9.19;100.00
74524;BME280;63074;44.696;10.358;2023-04-03T03:17:45;99601.00;;;9.10;100.00
74524;BME280;63074;44.696;10.358;2023-04-03T03:20:12;99604.94;;;9.20;100.00
74524;BME280;63074;44.696;10.358;2023-04-03T03:22:41;99607.75;;;9.13;100.00
74524;BME280;63074;44.696;10.358;2023-04-03T03:25:07;99603.44;;;9.24;100.00
74524;BME280;63074;44.696;10.358;2023-04-03T03:27:33;99609.25;;;9.21;100.00
74524;BME280;63074;44.696;10.358;2023-04-03T03:30:00;99606.91;;;9.24;100.00
74524;BME280;63074;44.696;10.358;2023-04-03T03:32:26;99604.47;;;9.23;100.00
74524;BME280;63074;44.696;10.358;2023-04-03T03:34:52;99604.13;;;9.19;100.00
74524;BME280;63074;44.696;10.358;2023-04-03T03:37:19;99596.69;;;9.09;100.00
74524;BME280;63074;44.696;10.358;2023-04-03T03:39:45;99592.28;;;9.03;100.00
74524;BME280;63074;44.696;10.358;2023-04-03T03:42:11;99601.16;;;8.92;100.00
74524;BME280;63074;44.696;10.358;2023-04-03T03:44:37;99607.09;;;8.94;100.00
74524;BME280;63074;44.696;10.358;2023-04-03T03:47:03;99611.53;;;8.89;100.00
74524;BME280;63074;44.696;10.358;2023-04-03T03:49:34;99608.84;;;8.89;100.00
74524;BME280;63074;44.696;10.358;2023-04-03T03:52:01;99606.63;;;8.74;100.00
74524;BME280;63074;44.696;10.358;2023-04-03T03:54:27;99606.44;;;8.64;100.00
74524;BME280;63074;44.696;10.358;2023-04-03T03:56:53;99611.97;;;8.27;100.00
74524;BME280;63074;44.696;10.358;2023-04-03T03:59:19;99604.94;;;8.14;100.00
74524;BME280;63074;44.696;10.358;2023-04-03T04:01:46;99608.09;;;8.23;100.00
74524;BME280;63074;44.696;10.358;2023-04-03T04:04:12;99611.25;;;8.20;100.00
74524;BME280;63074;44.696;10.358;2023-04-03T04:06:38;99617.66;;;8.31;100.00
74524;BME280;63074;44.696;10.358;2023-04-03T04:09:04;99617.91;;;8.29;100.00
74524;BME280;63074;44.696;10.358;2023-04-03T04:11:30;99610.09;;;8.28;100.00
74524;BME280;63074;44.696;10.358;2023-04-03T04:13:58;99618.00;;;8.23;100.00
74524;BME280;63074;44.696;10.358;2023-04-03T04:16:24;99613.59;;;8.28;100.00
74524;BME280;63074;44.696;10.358;2023-04-03T04:18:50;99614.56;;;8.34;100.00
74524;BME280;63074;44.696;10.358;2023-04-03T04:21:17;99612.13;;;8.32;100.00
74524;BME280;63074;44.696;10.358;2023-04-03T04:23:43;99610.84;;;8.35;100.00
74524;BME280;63074;44.696;10.358;2023-04-03T04:26:09;99599.63;;;8.38;100.00
74524;BME280;63074;44.696;10.358;2023-04-03T04:28:35;99610.31;;;8.26;100.00
74524;BME280;63074;44.696;10.358;2023-04-03T04:31:02;99600.94;;;8.35;100.00
74524;BME280;63074;44.696;10.358;2023-04-03T04:33:28;99596.41;;;8.36;100.00
74524;BME280;63074;44.696;10.358;2023-04-03T04:35:54;99611.88;;;8.34;100.00
74524;BME280;63074;44.696;10.358;2023-04-03T04:38:20;99610.03;;;8.34;100.00
74524;BME280;63074;44.696;10.358;2023-04-03T04:40:48;99609.22;;;8.34;100.00
74524;BME280;63074;44.696;10.358;2023-04-03T04:43:14;99612.13;;;8.32;100.00
74524;BME280;63074;44.696;10.358;2023-04-03T04:45:41;99612.94;;;8.33;100.00
74524;BME280;63074;44.696;10.358;2023-04-03T04:48:07;99626.50;;;8.31;100.00
74524;BME280;63074;44.696;10.358;2023-04-03T04:50:33;99617.53;;;8.26;100.00
74524;BME280;63074;44.696;10.358;2023-04-03T04:53:00;99618.34;;;8.26;100.00
74524;BME280;63074;44.696;10.358;2023-04-03T04:55:26;99614.19;;;8.30;100.00
74524;BME280;63074;44.696;10.358;2023-04-03T04:57:52;99618.09;;;8.16;100.00
74524;BME280;63074;44.696;10.358;2023-04-03T05:00:19;99625.91;;;8.18;100.00
74524;BME280;63074;44.696;10.358;2023-04-03T05:02:45;99622.41;;;8.17;100.00
74524;BME280;63074;44.696;10.358;2023-04-03T05:05:11;99617.03;;;8.05;100.00
74524;BME280;63074;44.696;10.358;2023-04-03T05:07:37;99627.38;;;8.02;100.00
74524;BME280;63074;44.696;10.358;2023-04-03T05:10:04;99629.38;;;8.06;100.00
74524;BME280;63074;44.696;10.358;2023-04-03T05:12:31;99626.53;;;7.90;100.00
74524;BME280;63074;44.696;10.358;2023-04-03T05:14:58;99635.00;;;7.87;100.00
74524;BME280;63074;44.696;10.358;2023-04-03T05:17:24;99634.16;;;7.74;100.00
74524;BME280;63074;44.696;10.358;2023-04-03T05:19:50;99629.69;;;7.98;100.00
74524;BME280;63074;44.696;10.358;2023-04-03T05:22:16;99633.19;;;7.99;100.00
74524;BME280;63074;44.696;10.358;2023-04-03T05:24:42;99639.13;;;8.01;100.00
74524;BME280;63074;44.696;10.358;2023-04-03T05:27:08;99637.88;;;8.15;100.00
74524;BME280;63074;44.696;10.358;2023-04-03T05:29:35;99643.59;;;8.07;100.00
74524;BME280;63074;44.696;10.358;2023-04-03T05:32:01;99639.38;;;8.11;100.00
74524;BME280;63074;44.696;10.358;2023-04-03T05:34:27;99641.28;;;8.22;100.00
74524;BME280;63074;44.696;10.358;2023-04-03T05:36:54;99637.31;;;8.25;100.00
74524;BME280;63074;44.696;10.358;2023-04-03T05:39:20;99643.81;;;8.17;100.00
74524;BME280;63074;44.696;10.358;2023-04-03T05:41:46;99651.38;;;8.20;100.00
74524;BME280;63074;44.696;10.358;2023-04-03T05:44:13;99649.88;;;8.24;100.00
74524;BME280;63074;44.696;10.358;2023-04-03T05:46:48;99651.38;;;8.20;100.00
74524;BME280;63074;44.696;10.358;2023-04-03T05:49:14;99652.16;;;8.39;100.00
74524;BME280;63074;44.696;10.358;2023-04-03T05:51:41;99660.53;;;8.42;100.00
74524;BME280;63074;44.696;10.358;2023-04-03T05:54:20;99657.19;;;8.17;100.00
74524;BME280;63074;44.696;10.358;2023-04-03T05:56:51;99658.44;;;8.44;100.00
74524;BME280;63074;44.696;10.358;2023-04-03T05:59:18;99660.50;;;8.31;100.00
74524;BME280;63074;44.696;10.358;2023-04-03T06:01:44;99664.25;;;8.41;100.00
74524;BME280;63074;44.696;10.358;2023-04-03T06:04:11;99664.25;;;8.41;100.00
74524;BME280;63074;44.696;10.358;2023-04-03T06:06:52;99675.34;;;8.57;100.00
74524;BME280;63074;44.696;10.358;2023-04-03T06:09:21;99670.69;;;8.75;100.00
74524;BME280;63074;44.696;10.358;2023-04-03T06:11:47;99672.81;;;8.62;100.00
74524;BME280;63074;44.696;10.358;2023-04-03T06:14:14;99666.88;;;8.83;100.00
74524;BME280;63074;44.696;10.358;2023-04-03T06:16:40;99671.63;;;9.04;100.00
74524;BME280;63074;44.696;10.358;2023-04-03T06:19:08;99670.56;;;9.05;100.00
74524;BME280;63074;44.696;10.358;2023-04-03T06:21:34;99668.13;;;9.16;100.00
74524;BME280;63074;44.696;10.358;2023-04-03T06:24:04;99674.28;;;9.28;100.00
74524;BME280;63074;44.696;10.358;2023-04-03T06:26:31;99684.63;;;9.36;100.00
74524;BME280;63074;44.696;10.358;2023-04-03T06:28:57;99686.09;;;9.55;100.00
74524;BME280;63074;44.696;10.358;2023-04-03T06:31:24;99685.94;;;9.73;100.00
74524;BME280;63074;44.696;10.358;2023-04-03T06:33:50;99688.69;;;9.90;100.00
74524;BME280;63074;44.696;10.358;2023-04-03T06:36:19;99689.84;;;9.94;100.00
74524;BME280;63074;44.696;10.358;2023-04-03T06:38:46;99692.53;;;9.82;100.00
74524;BME280;63074;44.696;10.358;2023-04-03T06:41:13;99692.41;;;9.89;100.00
74524;BME280;63074;44.696;10.358;2023-04-03T06:43:39;99695.63;;;9.74;100.00
74524;BME280;63074;44.696;10.358;2023-04-03T06:46:05;99693.88;;;9.68;100.00
74524;BME280;63074;44.696;10.358;2023-04-03T06:48:32;99697.09;;;9.82;100.00
74524;BME280;63074;44.696;10.358;2023-04-03T06:50:58;99692.31;;;9.84;100.00
74524;BME280;63074;44.696;10.358;2023-04-03T06:53:24;99691.69;;;9.94;100.00
74524;BME280;63074;44.696;10.358;2023-04-03T06:55:51;99690.66;;;9.95;100.00
74524;BME280;63074;44.696;10.358;2023-04-03T06:58:17;99700.78;;;10.04;100.00
74524;BME280;63074;44.696;10.358;2023-04-03T07:00:43;99692.13;;;9.74;100.00
74524;BME280;63074;44.696;10.358;2023-04-03T07:03:09;99694.63;;;9.92;100.00
74524;BME280;63074;44.696;10.358;2023-04-03T07:05:35;99696.72;;;10.19;100.00
74524;BME280;63074;44.696;10.358;2023-04-03T07:08:02;99695.78;;;9.96;100.00
74524;BME280;63074;44.696;10.358;2023-04-03T07:10:28;99694.47;;;9.99;100.00
74524;BME280;63074;44.696;10.358;2023-04-03T07:12:54;99696.50;;;9.92;100.00
74524;BME280;63074;44.696;10.358;2023-04-03T07:15:20;99697.66;;;10.12;100.00
74524;BME280;63074;44.696;10.358;2023-04-03T15:07:23;99513.03;;;21.50;43.14
74524;BME280;63074;44.696;10.358;2023-04-03T15:10:19;99510.97;;;21.90;41.17
74524;BME280;63074;44.696;10.358;2023-04-03T15:12:50;99513.38;;;22.09;40.35
74524;BME280;63074;44.696;10.358;2023-04-03T15:15:18;99509.66;;;22.22;41.33
74524;BME280;63074;44.696;10.358;2023-04-03T15:17:46;99499.00;;;22.29;39.35
74524;BME280;63074;44.696;10.358;2023-04-03T15:20:19;99509.50;;;21.49;39.44
74524;BME280;63074;44.696;10.358;2023-04-03T15:22:46;99516.38;;;22.33;38.18
74524;BME280;63074;44.696;10.358;2023-04-03T15:25:12;99512.09;;;22.06;36.64
74524;BME280;63074;44.696;10.358;2023-04-03T15:27:45;99519.97;;;22.08;36.57
74524;BME280;63074;44.696;10.358;2023-04-03T15:30:15;99519.78;;;21.70;36.48
74524;BME280;63074;44.696;10.358;2023-04-03T15:32:42;99512.91;;;21.55;36.71
74524;BME280;63074;44.696;10.358;2023-04-03T15:35:08;99510.88;;;20.64;35.74
74524;BME280;63074;44.696;10.358;2023-04-03T15:37:36;99508.06;;;20.24;36.04
74524;BME280;63074;44.696;10.358;2023-04-03T15:40:04;99516.47;;;19.83;36.91
74524;BME280;63074;44.696;10.358;2023-04-03T15:42:32;99512.44;;;19.81;37.49
74524;BME280;63074;44.696;10.358;2023-04-03T15:44:58;99516.59;;;19.29;38.29
74524;BME280;63074;44.696;10.358;2023-04-03T15:47:25;99513.78;;;19.06;39.01
74524;BME280;63074;44.696;10.358;2023-04-03T15:49:53;99511.75;;;18.57;39.40
74524;BME280;63074;44.696;10.358;2023-04-03T15:52:20;99511.88;;;18.19;39.10
74524;BME280;63074;44.696;10.358;2023-04-03T15:54:53;99515.84;;;17.95;40.02
74524;BME280;63074;44.696;10.358;2023-04-03T15:57:25;99509.88;;;18.11;40.26
74524;BME280;63074;44.696;10.358;2023-04-03T15:59:53;99512.72;;;17.87;40.84
74524;BME280;63074;44.696;10.358;2023-04-03T16:02:22;99513.00;;;17.86;41.08
74524;BME280;63074;44.696;10.358;2023-04-03T16:04:52;99520.34;;;17.85;42.74
74524;BME280;63074;44.696;10.358;2023-04-03T16:07:18;99523.13;;;17.62;42.47
74524;BME280;63074;44.696;10.358;2023-04-03T16:09:44;99520.13;;;17.26;42.94
74524;BME280;63074;44.696;10.358;2023-04-03T16:12:11;99516.00;;;17.28;42.10
74524;BME280;63074;44.696;10.358;2023-04-03T16:14:40;99505.09;;;17.09;41.71
74524;BME280;63074;44.696;10.358;2023-04-03T16:17:13;99508.28;;;16.74;42.89
74524;BME280;63074;44.696;10.358;2023-04-03T16:19:39;99517.56;;;16.68;42.12
74524;BME280;63074;44.696;10.358;2023-04-03T16:22:12;99514.94;;;16.81;43.08
74524;BME280;63074;44.696;10.358;2023-04-03T16:24:40;99513.56;;;16.84;43.99
74524;BME280;63074;44.696;10.358;2023-04-03T16:27:09;99517.63;;;16.58;43.09
74524;BME280;63074;44.696;10.358;2023-04-03T16:29:36;99528.16;;;16.35;43.17
74524;BME280;63074;44.696;10.358;2023-04-03T16:32:03;99525.50;;;16.30;44.41
74524;BME280;63074;44.696;10.358;2023-04-03T16:34:29;99528.00;;;16.21;44.35
74524;BME280;63074;44.696;10.358;2023-04-03T16:36:59;99527.09;;;16.02;44.43
74524;BME280;63074;44.696;10.358;2023-04-03T16:39:25;99518.47;;;15.95;44.42
74524;BME280;63074;44.696;10.358;2023-04-03T16:41:51;99520.69;;;15.88;45.26
74524;BME280;63074;44.696;10.358;2023-04-03T16:44:18;99523.66;;;15.92;45.64
74524;BME280;63074;44.696;10.358;2023-04-03T16:46:44;99523.84;;;15.66;46.44
74524;BME280;63074;44.696;10.358;2023-04-03T16:49:11;99524.88;;;15.75;46.77
74524;BME280;63074;44.696;10.358;2023-04-03T16:51:39;99530.97;;;15.52;47.57
74524;BME280;63074;44.696;10.358;2023-04-03T16:54:10;99530.41;;;15.55;47.76
74524;BME280;63074;44.696;10.358;2023-04-03T16:56:38;99530.47;;;15.45;48.08
74524;BME280;63074;44.696;10.358;2023-04-03T16:59:28;99539.41;;;15.40;48.17
74524;BME280;63074;44.696;10.358;2023-04-03T17:01:56;99536.44;;;15.37;48.28
74524;BME280;63074;44.696;10.358;2023-04-03T17:04:25;99540.25;;;15.36;48.61
74524;BME280;63074;44.696;10.358;2023-04-03T17:06:55;99541.03;;;15.41;48.34
74524;BME280;63074;44.696;10.358;2023-04-03T17:09:31;99545.75;;;15.20;48.36
74524;BME280;63074;44.696;10.358;2023-04-03T17:11:57;99544.16;;;15.14;48.85
74524;BME280;63074;44.696;10.358;2023-04-03T17:14:26;99549.84;;;15.13;48.72
74524;BME280;63074;44.696;10.358;2023-04-03T17:16:53;99549.38;;;14.96;49.28
74524;BME280;63074;44.696;10.358;2023-04-03T17:19:28;99546.97;;;14.74;49.04
74524;BME280;63074;44.696;10.358;2023-04-03T17:21:58;99550.50;;;14.74;49.03
74524;BME280;63074;44.696;10.358;2023-04-03T17:24:28;99545.41;;;14.52;49.66
74524;BME280;63074;44.696;10.358;2023-04-03T17:27:29;99547.34;;;14.42;48.57
74524;BME280;63074;44.696;10.358;2023-04-03T17:29:56;99557.31;;;14.31;49.77
74524;BME280;63074;44.696;10.358;2023-04-03T17:32:26;99551.63;;;14.17;47.67
74524;BME280;63074;44.696;10.358;2023-04-03T17:34:53;99550.84;;;14.22;47.65
74524;BME280;63074;44.696;10.358;2023-04-03T17:37:19;99554.63;;;14.01;47.60
74524;BME280;63074;44.696;10.358;2023-04-03T17:39:45;99567.56;;;13.89;47.48
74524;BME280;63074;44.696;10.358;2023-04-03T17:42:12;99568.13;;;13.85;47.56
74524;BME280;63074;44.696;10.358;2023-04-03T17:44:38;99568.38;;;13.74;47.34
74524;BME280;63074;44.696;10.358;2023-04-03T17:47:13;99569.94;;;13.60;48.03
74524;BME280;63074;44.696;10.358;2023-04-03T17:49:45;99570.16;;;13.38;48.54
74524;BME280;63074;44.696;10.358;2023-04-03T17:52:11;99565.56;;;13.33;49.50
74524;BME280;63074;44.696;10.358;2023-04-03T17:54:38;99566.66;;;13.27;48.60
74524;BME280;63074;44.696;10.358;2023-04-03T17:57:04;99566.88;;;13.21;48.79
74524;BME280;63074;44.696;10.358;2023-04-03T17:59:31;99572.84;;;13.23;49.63
74524;BME280;63074;44.696;10.358;2023-04-03T18:01:57;99567.41;;;13.17;48.87
74524;BME280;63074;44.696;10.358;2023-04-03T18:04:28;99569.97;;;12.92;48.91
74524;BME280;63074;44.696;10.358;2023-04-03T18:06:56;99571.56;;;12.88;48.86
74524;BME280;63074;44.696;10.358;2023-04-03T18:09:31;99573.38;;;12.77;48.66
74524;BME280;63074;44.696;10.358;2023-04-03T18:12:01;99578.53;;;12.84;49.04
74524;BME280;63074;44.696;10.358;2023-04-03T18:14:29;99582.25;;;12.68;48.73
74524;BME280;63074;44.696;10.358;2023-04-03T18:16:57;99586.47;;;12.59;49.14
74524;BME280;63074;44.696;10.358;2023-04-03T18:19:25;99584.16;;;12.35;49.87
74524;BME280;63074;44.696;10.358;2023-04-03T18:21:54;99583.88;;;12.32;50.15
74524;BME280;63074;44.696;10.358;2023-04-03T18:24:22;99586.06;;;12.35;50.37
74524;BME280;63074;44.696;10.358;2023-04-03T18:26:57;99588.13;;;11.96;50.48
74524;BME280;63074;44.696;10.358;2023-04-03T18:29:26;99594.69;;;12.05;51.05
74524;BME280;63074;44.696;10.358;2023-04-03T18:31:56;99597.97;;;11.80;51.63
74524;BME280;63074;44.696;10.358;2023-04-03T18:34:24;99597.97;;;11.36;52.85
74524;BME280;63074;44.696;10.358;2023-04-03T18:36:51;99607.28;;;11.29;53.32
74524;BME280;63074;44.696;10.358;2023-04-03T18:39:20;99609.41;;;11.27;53.95
74524;BME280;63074;44.696;10.358;2023-04-03T18:41:47;99612.63;;;11.24;54.41
74524;BME280;63074;44.696;10.358;2023-04-03T18:44:22;99619.31;;;11.21;54.37
74524;BME280;63074;44.696;10.358;2023-04-03T18:46:54;99617.88;;;11.35;54.16
74524;BME280;63074;44.696;10.358;2023-04-03T18:49:23;99629.88;;;11.28;54.72
74524;BME280;63074;44.696;10.358;2023-04-03T18:51:56;99631.72;;;11.44;54.16
74524;BME280;63074;44.696;10.358;2023-04-03T18:54:31;99630.75;;;11.33;54.25
74524;BME280;63074;44.696;10.358;2023-04-03T18:57:14;99641.97;;;11.47;53.57
74524;BME280;63074;44.696;10.358;2023-04-03T18:59:50;99640.28;;;11.41;53.90
74524;BME280;63074;44.696;10.358;2023-04-03T19:02:17;99641.09;;;11.41;54.24
74524;BME280;63074;44.696;10.358;2023-04-03T19:04:48;99648.28;;;11.14;55.11
74524;BME280;63074;44.696;10.358;2023-04-03T19:07:19;99643.31;;;11.06;56.15
74524;BME280;63074;44.696;10.358;2023-04-03T19:09:47;99645.25;;;11.10;55.58
74524;BME280;63074;44.696;10.358;2023-04-03T19:12:15;99649.91;;;10.98;56.16
74524;BME280;63074;44.696;10.358;2023-04-03T19:14:43;99653.66;;;10.97;56.50
74524;BME280;63074;44.696;10.358;2023-04-03T19:17:13;99655.03;;;11.16;56.53
74524;BME280;63074;44.696;10.358;2023-04-03T19:19:44;99657.97;;;10.98;57.07
74524;BME280;63074;44.696;10.358;2023-04-03T19:22:15;99656.88;;;10.94;57.31
74524;BME280;63074;44.696;10.358;2023-04-03T19:24:45;99659.41;;;10.84;57.80
74524;BME280;63074;44.696;10.358;2023-04-03T19:27:12;99659.50;;;10.89;57.96
74524;BME280;63074;44.696;10.358;2023-04-03T19:29:47;99665.69;;;10.73;57.93
74524;BME280;63074;44.696;10.358;2023-04-03T19:32:16;99671.50;;;10.65;58.66
74524;BME280;63074;44.696;10.358;2023-04-03T19:34:51;99672.38;;;10.54;58.87
74524;BME280;63074;44.696;10.358;2023-04-03T19:37:24;99671.00;;;10.51;59.40
74524;BME280;63074;44.696;10.358;2023-04-03T19:39:52;99679.38;;;10.38;59.77
74524;BME280;63074;44.696;10.358;2023-04-03T19:42:20;99687.34;;;10.33;60.14
74524;BME280;63074;44.696;10.358;2023-04-03T19:45:16;99689.59;;;10.24;60.58
74524;BME280;63074;44.696;10.358;2023-04-03T19:47:43;99692.63;;;10.16;60.73
74524;BME280;63074;44.696;10.358;2023-04-03T19:50:10;99692.63;;;10.28;60.51
74524;BME280;63074;44.696;10.358;2023-04-03T19:52:37;99696.94;;;10.29;60.82
74524;BME280;63074;44.696;10.358;2023-04-03T19:55:03;99692.75;;;10.21;61.83
74524;BME280;63074;44.696;10.358;2023-04-03T19:57:35;99695.63;;;10.03;61.65
74524;BME280;63074;44.696;10.358;2023-04-03T20:00:13;99702.78;;;10.26;61.74
74524;BME280;63074;44.696;10.358;2023-04-03T20:02:43;99706.25;;;10.38;60.83
74524;BME280;63074;44.696;10.358;2023-04-03T20:05:14;99704.50;;;10.32;60.66
74524;BME280;63074;44.696;10.358;2023-04-03T20:07:45;99710.47;;;10.34;60.57
74524;BME280;63074;44.696;10.358;2023-04-03T20:10:17;99704.19;;;10.28;61.46
74524;BME280;63074;44.696;10.358;2023-04-03T20:13:04;99710.75;;;10.21;61.64
74524;BME280;63074;44.696;10.358;2023-04-03T20:15:40;99711.44;;;10.16;61.81
74524;BME280;63074;44.696;10.358;2023-04-03T20:18:19;99712.16;;;10.11;61.72
74524;BME280;63074;44.696;10.358;2023-04-03T20:20:58;99724.53;;;10.12;61.63
74524;BME280;63074;44.696;10.358;2023-04-03T20:23:31;99715.91;;;10.10;62.23
74524;BME280;63074;44.696;10.358;2023-04-03T20:26:28;99716.22;;;10.14;62.31
74524;BME280;63074;44.696;10.358;2023-04-03T20:29:03;99719.63;;;10.21;62.56
74524;BME280;63074;44.696;10.358;2023-04-03T20:31:46;99721.72;;;10.19;62.52
74524;BME280;63074;44.696;10.358;2023-04-03T20:34:33;99714.34;;;10.14;63.03
74524;BME280;63074;44.696;10.358;2023-04-03T20:40:26;99708.06;;;10.21;63.67
74524;BME280;63074;44.696;10.358;2023-04-03T20:42:53;99711.25;;;10.06;64.36
74524;BME280;63074;44.696;10.358;2023-04-03T20:45:54;99704.84;;;10.07;65.10
74524;BME280;63074;44.696;10.358;2023-04-03T20:48:30;99707.13;;;10.15;65.05
74524;BME280;63074;44.696;10.358;2023-04-03T20:53:54;99708.97;;;9.98;66.51
74524;BME280;63074;44.696;10.358;2023-04-03T20:56:30;99712.91;;;10.07;66.69
74524;BME280;63074;44.696;10.358;2023-04-03T20:59:23;99715.72;;;10.00;67.52
74524;BME280;63074;44.696;10.358;2023-04-03T21:01:58;99720.88;;;9.90;67.84
74524;BME280;63074;44.696;10.358;2023-04-03T21:04:51;99723.63;;;9.78;69.22